Time;durP1;ratioP1;P1;durP2;ratioP2;P2;SDS_P1;SDS_P2;PMS_P1;PMS_P2;Temp;Humidity;BMP_temperature;BMP_pressure;BME280_temperature;BME280_humidity;BME280_pressure;Samples;Min_cycle;Max_cycle;Signal;HPM_P1;HPM_P2
2022/04/30 00:02:21;;;;;;;10.43;5.35;;;;;;;;;;5031126;28;20042;-74
2022/04/30 00:04:48;;;;;;;7.80;5.00;;;;;;;;;;5032116;28;20081;-73
2022/04/30 00:07:16;;;;;;;7.97;4.88;;;;;;;;;;5033578;28;20053;-73
2022/04/30 00:09:42;;;;;;;8.27;5.07;;;;;;;;;;5032296;28;20517;-73
2022/04/30 00:12:10;;;;;;;10.00;5.97;;;;;;;;;;5031567;28;20054;-73
2022/04/30 00:14:36;;;;;;;8.23;5.10;;;;;;;;;;5028737;28;20051;-74
2022/04/30 00:17:02;;;;;;;9.05;5.00;;;;;;;;;;5029997;28;20064;-74
2022/04/30 00:19:29;;;;;;;11.52;5.00;;;;;;;;;;5033183;28;20477;-73
2022/04/30 00:21:56;;;;;;;6.43;4.80;;;;;;;;;;5033647;28;20050;-74
2022/04/30 00:24:26;;;;;;;10.50;5.25;;;;;;;;;;5032813;28;20053;-74
2022/04/30 00:26:53;;;;;;;13.95;5.57;;;;;;;;;;5033233;28;20485;-73
2022/04/30 00:29:19;;;;;;;10.70;4.85;;;;;;;;;;5032504;28;20050;-74
2022/04/30 00:31:45;;;;;;;8.48;6.10;;;;;;;;;;5031065;28;20446;-74
2022/04/30 00:34:11;;;;;;;13.48;5.28;;;;;;;;;;5033144;28;20050;-74
2022/04/30 00:36:38;;;;;;;9.25;5.20;;;;;;;;;;5031192;28;20057;-74
2022/04/30 00:39:04;;;;;;;9.27;5.70;;;;;;;;;;5033238;28;20056;-74
2022/04/30 00:41:32;;;;;;;9.27;5.53;;;;;;;;;;5031273;28;20046;-74
2022/04/30 00:43:59;;;;;;;9.15;5.53;;;;;;;;;;5032779;28;20060;-73
2022/04/30 00:46:25;;;;;;;7.07;5.18;;;;;;;;;;5029918;28;20103;-73
2022/04/30 00:48:53;;;;;;;10.25;5.95;;;;;;;;;;5032358;28;20054;-74
2022/04/30 00:51:20;;;;;;;8.50;5.13;;;;;;;;;;5032279;28;20515;-74
2022/04/30 00:53:47;;;;;;;8.88;5.53;;;;;;;;;;5032534;28;20049;-73
2022/04/30 00:56:14;;;;;;;9.90;5.30;;;;;;;;;;5029658;28;20068;-73
2022/04/30 00:58:41;;;;;;;9.65;5.43;;;;;;;;;;5030337;28;20064;-73
2022/04/30 01:01:08;;;;;;;8.77;5.45;;;;;;;;;;5029799;28;20137;-73
2022/04/30 01:03:36;;;;;;;11.65;5.22;;;;;;;;;;5029255;28;20137;-73
2022/04/30 01:06:04;;;;;;;9.48;5.00;;;;;;;;;;5029586;28;20062;-73
2022/04/30 01:08:30;;;;;;;9.75;5.53;;;;;;;;;;5032162;28;20060;-73
2022/04/30 01:11:00;;;;;;;8.30;5.20;;;;;;;;;;5013055;28;20065;-72
2022/04/30 01:13:27;;;;;;;9.25;5.07;;;;;;;;;;5029941;28;20068;-72
2022/04/30 01:15:55;;;;;;;8.75;4.78;;;;;;;;;;5030144;28;20050;-72
2022/04/30 01:18:22;;;;;;;9.00;5.15;;;;;;;;;;5031298;28;20138;-72
2022/04/30 01:20:51;;;;;;;9.50;5.80;;;;;;;;;;5032009;28;20060;-72
2022/04/30 01:23:18;;;;;;;8.85;5.38;;;;;;;;;;5026187;28;20110;-72
2022/04/30 01:25:46;;;;;;;8.68;5.63;;;;;;;;;;5030131;28;20516;-72
2022/04/30 01:28:12;;;;;;;9.00;4.97;;;;;;;;;;5031010;28;20512;-72
2022/04/30 01:30:38;;;;;;;13.02;6.13;;;;;;;;;;5030893;28;20065;-72
2022/04/30 01:38:35;;;;;;;8.23;5.13;;;;;;;;;;5031384;28;20102;-72
2022/04/30 01:41:01;;;;;;;9.40;5.63;;;;;;;;;;5030924;28;20057;-72
2022/04/30 01:43:27;;;;;;;12.48;5.72;;;;;;;;;;5012465;28;20050;-73
2022/04/30 01:45:53;;;;;;;9.73;5.55;;;;;;;;;;5011830;28;20058;-73
2022/04/30 01:48:20;;;;;;;5.97;4.68;;;;;;;;;;5024871;28;20054;-73
2022/04/30 01:50:46;;;;;;;11.50;5.13;;;;;;;;;;5030065;28;20065;-73
2022/04/30 01:53:12;;;;;;;8.98;5.43;;;;;;;;;;5029273;28;20149;-73
2022/04/30 01:55:39;;;;;;;8.77;5.63;;;;;;;;;;5031726;28;20054;-73
2022/04/30 01:58:05;;;;;;;9.85;5.47;;;;;;;;;;5031969;28;20144;-73
2022/04/30 02:00:32;;;;;;;10.98;6.63;;;;;;;;;;5031218;28;20056;-74
2022/04/30 02:03:03;;;;;;;9.32;6.03;;;;;;;;;;5029246;28;20500;-73
2022/04/30 02:05:29;;;;;;;7.57;5.93;;;;;;;;;;5030833;28;20057;-73
2022/04/30 02:07:58;;;;;;;12.15;6.13;;;;;;;;;;5031803;28;20050;-73
2022/04/30 02:10:25;;;;;;;12.43;5.97;;;;;;;;;;5031795;28;20427;-74
2022/04/30 02:12:52;;;;;;;9.52;5.43;;;;;;;;;;5030438;28;20057;-73
2022/04/30 02:15:19;;;;;;;8.70;6.22;;;;;;;;;;5035243;28;20054;-73
2022/04/30 02:17:48;;;;;;;9.75;5.63;;;;;;;;;;5033584;28;20126;-74
2022/04/30 02:20:29;;;;;;;9.90;6.28;;;;;;;;;;5034634;28;20080;-74
2022/04/30 02:22:57;;;;;;;11.98;6.78;;;;;;;;;;5034680;28;20054;-74
2022/04/30 02:25:25;;;;;;;9.65;6.30;;;;;;;;;;5034493;28;20527;-74
2022/04/30 02:27:52;;;;;;;11.55;6.65;;;;;;;;;;5033914;28;20050;-74
2022/04/30 02:30:19;;;;;;;11.43;6.18;;;;;;;;;;5034693;28;20054;-74
2022/04/30 02:32:49;;;;;;;10.18;6.00;;;;;;;;;;5033655;28;20402;-74
2022/04/30 02:35:16;;;;;;;9.05;6.00;;;;;;;;;;5032496;28;20437;-74
2022/04/30 02:37:48;;;;;;;11.55;7.10;;;;;;;;;;5032378;28;20056;-73
2022/04/30 02:40:15;;;;;;;9.52;6.47;;;;;;;;;;5033180;28;20576;-73
2022/04/30 02:42:41;;;;;;;11.63;6.38;;;;;;;;;;5033902;28;20406;-74
2022/04/30 02:45:09;;;;;;;12.20;7.00;;;;;;;;;;5035151;28;20088;-74
2022/04/30 02:47:36;;;;;;;12.20;6.70;;;;;;;;;;5034578;28;20049;-74
2022/04/30 02:50:03;;;;;;;9.05;6.18;;;;;;;;;;5034809;28;20057;-73
2022/04/30 02:52:29;;;;;;;11.25;6.72;;;;;;;;;;5032084;28;20061;-73
2022/04/30 02:54:55;;;;;;;9.05;6.60;;;;;;;;;;5033429;28;20078;-73
2022/04/30 02:57:21;;;;;;;14.73;7.10;;;;;;;;;;5034556;28;20061;-74
2022/04/30 02:59:53;;;;;;;11.02;6.97;;;;;;;;;;5034817;28;20058;-73
2022/04/30 03:02:20;;;;;;;9.20;6.40;;;;;;;;;;5032086;28;20050;-74
2022/04/30 03:04:51;;;;;;;11.85;6.70;;;;;;;;;;5034131;28;20060;-73
2022/04/30 03:07:18;;;;;;;10.75;6.30;;;;;;;;;;5032937;28;20056;-74
2022/04/30 03:09:46;;;;;;;9.55;6.95;;;;;;;;;;5032989;28;20062;-74
2022/04/30 03:12:13;;;;;;;10.75;6.80;;;;;;;;;;5030382;28;20054;-73
2022/04/30 03:14:40;;;;;;;13.23;7.13;;;;;;;;;;5034097;28;20060;-74
2022/04/30 03:22:37;;;;;;;9.03;6.60;;;;;;;;;;5034188;28;20050;-73
2022/04/30 03:25:03;;;;;;;8.02;6.15;;;;;;;;;;5032491;28;20076;-73
2022/04/30 03:27:31;;;;;;;12.40;6.80;;;;;;;;;;5032841;28;21112;-74
2022/04/30 03:29:57;;;;;;;10.38;6.53;;;;;;;;;;5033491;28;20058;-73
2022/04/30 03:32:24;;;;;;;10.90;6.47;;;;;;;;;;5033352;28;20058;-72
2022/04/30 03:34:51;;;;;;;12.20;6.65;;;;;;;;;;5033722;28;20050;-73
2022/04/30 03:37:18;;;;;;;11.98;6.60;;;;;;;;;;5033812;28;20054;-73
2022/04/30 03:39:44;;;;;;;10.45;6.85;;;;;;;;;;5033128;28;20087;-73
2022/04/30 03:42:10;;;;;;;11.27;6.78;;;;;;;;;;5031208;28;20053;-73
2022/04/30 03:44:36;;;;;;;10.05;6.32;;;;;;;;;;5034467;28;20229;-73
2022/04/30 03:47:03;;;;;;;9.05;6.63;;;;;;;;;;5025028;28;20055;-75
2022/04/30 03:49:29;;;;;;;11.82;7.18;;;;;;;;;;5025282;28;20057;-73
2022/04/30 03:51:55;;;;;;;11.10;6.95;;;;;;;;;;5029631;28;20069;-72
2022/04/30 03:54:22;;;;;;;8.70;5.90;;;;;;;;;;5031151;28;20056;-72
2022/04/30 03:56:48;;;;;;;9.85;5.85;;;;;;;;;;5032836;28;20064;-72
2022/04/30 03:59:15;;;;;;;10.63;6.65;;;;;;;;;;5034113;28;20057;-72
2022/04/30 04:01:42;;;;;;;12.05;6.93;;;;;;;;;;5034203;28;20495;-72
2022/04/30 04:04:10;;;;;;;11.02;6.55;;;;;;;;;;5030071;28;20064;-72
2022/04/30 04:06:36;;;;;;;10.30;6.32;;;;;;;;;;5031320;28;20050;-72
2022/04/30 04:09:02;;;;;;;9.82;6.07;;;;;;;;;;5033363;28;20512;-72
2022/04/30 04:11:29;;;;;;;11.05;6.45;;;;;;;;;;5030964;28;20054;-73
2022/04/30 04:19:26;;;;;;;11.60;6.47;;;;;;;;;;5032949;28;20777;-73
2022/04/30 04:21:52;;;;;;;8.85;6.15;;;;;;;;;;5032920;28;20058;-73
2022/04/30 04:27:03;;;;;;;11.35;6.05;;;;;;;;;;5033164;28;20500;-73
2022/04/30 04:29:29;;;;;;;11.52;6.78;;;;;;;;;;5031968;28;20053;-73
2022/04/30 04:31:57;;;;;;;10.68;7.97;;;;;;;;;;5032464;28;20050;-73
2022/04/30 04:34:23;;;;;;;12.30;6.20;;;;;;;;;;5031101;28;20050;-73
2022/04/30 04:36:49;;;;;;;10.52;6.43;;;;;;;;;;5032127;28;20468;-73
2022/04/30 04:39:16;;;;;;;12.10;6.55;;;;;;;;;;5032435;28;20441;-73
2022/04/30 04:41:43;;;;;;;9.60;5.95;;;;;;;;;;5031487;28;20085;-73
2022/04/30 04:44:09;;;;;;;8.98;6.25;;;;;;;;;;5030739;28;20433;-72
2022/04/30 04:46:37;;;;;;;12.20;6.03;;;;;;;;;;5033301;28;20053;-72
2022/04/30 04:49:04;;;;;;;8.38;6.32;;;;;;;;;;5032833;28;20094;-73
2022/04/30 04:51:30;;;;;;;12.27;6.13;;;;;;;;;;5032053;28;20054;-72
2022/04/30 04:53:57;;;;;;;10.93;5.88;;;;;;;;;;5034373;28;20475;-73
2022/04/30 04:56:23;;;;;;;8.90;5.40;;;;;;;;;;5032140;28;20066;-73
2022/04/30 04:58:49;;;;;;;10.98;6.07;;;;;;;;;;5028985;28;20064;-74
2022/04/30 05:01:16;;;;;;;10.82;6.28;;;;;;;;;;5028564;28;20413;-73
2022/04/30 05:03:42;;;;;;;8.82;5.97;;;;;;;;;;5030040;28;20116;-74
2022/04/30 05:06:09;;;;;;;8.88;5.95;;;;;;;;;;5031794;28;20057;-74
2022/04/30 05:08:35;;;;;;;9.40;6.80;;;;;;;;;;5032702;28;20493;-74
2022/04/30 05:11:01;;;;;;;12.45;5.55;;;;;;;;;;5031675;28;20057;-74
2022/04/30 05:13:28;;;;;;;10.50;6.38;;;;;;;;;;5031621;28;20459;-74
2022/04/30 05:15:54;;;;;;;10.35;6.40;;;;;;;;;;5030594;28;20136;-74
2022/04/30 05:18:21;;;;;;;11.07;6.53;;;;;;;;;;5031114;28;20446;-73
2022/04/30 05:20:47;;;;;;;7.30;5.47;;;;;;;;;;5029029;28;20050;-74
2022/04/30 05:23:14;;;;;;;16.02;6.55;;;;;;;;;;5031855;28;20057;-74
2022/04/30 05:25:43;;;;;;;11.95;6.28;;;;;;;;;;5032801;28;20061;-74
2022/04/30 05:28:09;;;;;;;8.73;6.35;;;;;;;;;;5031750;28;20046;-73
2022/04/30 05:30:36;;;;;;;9.45;5.97;;;;;;;;;;5029729;28;20188;-73
2022/04/30 05:33:02;;;;;;;14.80;6.43;;;;;;;;;;5031070;28;20050;-73
2022/04/30 05:35:29;;;;;;;9.57;6.40;;;;;;;;;;5029907;28;20057;-73
2022/04/30 05:37:55;;;;;;;10.23;6.50;;;;;;;;;;5024394;28;20061;-74
2022/04/30 05:40:22;;;;;;;9.32;6.20;;;;;;;;;;5026072;28;20105;-74
2022/04/30 05:42:48;;;;;;;10.75;6.07;;;;;;;;;;5027330;28;20054;-74
2022/04/30 05:45:14;;;;;;;15.80;7.68;;;;;;;;;;5031729;28;20050;-74
2022/04/30 05:47:40;;;;;;;10.48;6.28;;;;;;;;;;5029771;28;20054;-74
2022/04/30 05:50:09;;;;;;;10.27;6.90;;;;;;;;;;5030636;28;20133;-73
2022/04/30 05:52:36;;;;;;;8.93;6.55;;;;;;;;;;5030660;28;20061;-74
2022/04/30 05:55:02;;;;;;;11.35;7.10;;;;;;;;;;5032060;28;20136;-74
2022/04/30 05:57:29;;;;;;;8.60;6.38;;;;;;;;;;5032126;28;20046;-73
2022/04/30 05:59:56;;;;;;;8.85;6.55;;;;;;;;;;5031486;28;20050;-73
2022/04/30 06:02:22;;;;;;;7.85;6.53;;;;;;;;;;5032268;28;20050;-73
2022/04/30 06:04:49;;;;;;;8.88;6.10;;;;;;;;;;5030086;28;20076;-74
2022/04/30 06:07:16;;;;;;;8.15;6.55;;;;;;;;;;5031921;28;20050;-73
2022/04/30 06:09:42;;;;;;;11.27;6.75;;;;;;;;;;5031962;28;20064;-73
2022/04/30 06:12:09;;;;;;;9.32;6.72;;;;;;;;;;5031673;28;20145;-73
2022/04/30 06:14:35;;;;;;;8.60;6.60;;;;;;;;;;5032028;28;20058;-75
2022/04/30 06:17:02;;;;;;;10.48;6.95;;;;;;;;;;5028895;28;20054;-74
2022/04/30 06:19:28;;;;;;;13.48;6.93;;;;;;;;;;5030473;28;20137;-75
2022/04/30 06:21:54;;;;;;;14.55;7.00;;;;;;;;;;5030859;28;20050;-74
2022/04/30 06:24:21;;;;;;;10.02;6.63;;;;;;;;;;5030537;28;20077;-74
2022/04/30 06:26:47;;;;;;;10.35;6.93;;;;;;;;;;5031405;28;20049;-73
2022/04/30 06:29:13;;;;;;;10.68;5.90;;;;;;;;;;5030944;28;20481;-74
2022/04/30 06:31:40;;;;;;;10.18;6.53;;;;;;;;;;5030250;28;20053;-71
2022/04/30 06:34:06;;;;;;;10.65;6.57;;;;;;;;;;5030940;28;20569;-72
2022/04/30 06:36:33;;;;;;;11.32;6.53;;;;;;;;;;5031959;28;20054;-74
2022/04/30 06:38:59;;;;;;;9.43;7.05;;;;;;;;;;5031629;28;20061;-71
2022/04/30 06:41:25;;;;;;;11.23;6.80;;;;;;;;;;5030007;28;20525;-73
2022/04/30 06:43:52;;;;;;;10.10;6.85;;;;;;;;;;5029486;28;20053;-72
2022/04/30 06:46:19;;;;;;;12.75;7.03;;;;;;;;;;5029097;28;20050;-72
2022/04/30 06:48:45;;;;;;;12.77;6.95;;;;;;;;;;5030007;28;20137;-73
2022/04/30 06:51:11;;;;;;;10.65;6.13;;;;;;;;;;5031360;28;20058;-74
2022/04/30 06:59:12;;;;;;;10.38;6.60;;;;;;;;;;5033614;28;20050;-72
2022/04/30 07:01:45;;;;;;;12.40;5.65;;;;;;;;;;5032861;28;20232;-72
2022/04/30 07:04:13;;;;;;;9.80;5.85;;;;;;;;;;5034073;28;20058;-73
2022/04/30 07:06:40;;;;;;;22.67;7.25;;;;;;;;;;5030424;28;20053;-71
2022/04/30 07:09:06;;;;;;;16.95;6.03;;;;;;;;;;5031613;28;20111;-74
2022/04/30 07:11:33;;;;;;;11.05;6.30;;;;;;;;;;5034692;28;20050;-73
2022/04/30 07:13:59;;;;;;;10.90;7.07;;;;;;;;;;5029764;28;20054;-73
2022/04/30 07:16:26;;;;;;;9.60;6.70;;;;;;;;;;5034486;28;20054;-73
2022/04/30 07:18:52;;;;;;;15.57;6.78;;;;;;;;;;5034098;28;20053;-73
2022/04/30 07:21:18;;;;;;;10.05;6.47;;;;;;;;;;5034184;28;20057;-73
2022/04/30 07:23:45;;;;;;;11.85;6.40;;;;;;;;;;5032244;28;20061;-73
2022/04/30 07:26:11;;;;;;;7.78;5.65;;;;;;;;;;5034002;28;20153;-73
2022/04/30 07:28:37;;;;;;;10.05;5.70;;;;;;;;;;5032048;28;20054;-73
2022/04/30 07:31:05;;;;;;;7.68;5.82;;;;;;;;;;5034132;28;20054;-73
2022/04/30 07:33:31;;;;;;;7.85;5.70;;;;;;;;;;5033793;28;20050;-73
2022/04/30 07:36:00;;;;;;;8.70;5.88;;;;;;;;;;5034278;28;20432;-73
2022/04/30 07:38:26;;;;;;;7.53;5.53;;;;;;;;;;5032096;28;20098;-73
2022/04/30 07:40:52;;;;;;;9.57;6.35;;;;;;;;;;5032527;28;20085;-73
2022/04/30 07:43:19;;;;;;;8.85;5.78;;;;;;;;;;5031595;28;20061;-75
2022/04/30 07:45:45;;;;;;;9.27;5.05;;;;;;;;;;5032316;28;20056;-72
2022/04/30 07:48:11;;;;;;;13.00;6.15;;;;;;;;;;5032169;28;20061;-74
2022/04/30 07:50:38;;;;;;;6.65;5.63;;;;;;;;;;5033786;28;20111;-73
2022/04/30 07:53:07;;;;;;;8.27;5.90;;;;;;;;;;5031910;28;20524;-73
2022/04/30 07:55:33;;;;;;;11.43;5.63;;;;;;;;;;5032585;28;20057;-73
2022/04/30 07:58:02;;;;;;;6.75;4.90;;;;;;;;;;5032830;28;20065;-73
2022/04/30 08:00:28;;;;;;;11.77;5.35;;;;;;;;;;5034249;28;20046;-73
2022/04/30 08:02:56;;;;;;;7.38;4.35;;;;;;;;;;5033055;28;20058;-72
2022/04/30 08:05:23;;;;;;;13.68;4.30;;;;;;;;;;5015609;28;20050;-73
2022/04/30 08:07:49;;;;;;;6.13;4.05;;;;;;;;;;5013961;28;20064;-73
2022/04/30 08:10:15;;;;;;;8.27;4.07;;;;;;;;;;5014065;28;20050;-72
2022/04/30 08:12:43;;;;;;;8.07;4.65;;;;;;;;;;5013799;28;20528;-72
2022/04/30 08:15:09;;;;;;;6.07;4.45;;;;;;;;;;5012594;28;20490;-72
2022/04/30 08:17:38;;;;;;;6.18;4.53;;;;;;;;;;5014993;28;20066;-72
2022/04/30 08:20:07;;;;;;;8.25;4.45;;;;;;;;;;5019381;28;20069;-73
2022/04/30 08:22:33;;;;;;;5.10;4.20;;;;;;;;;;5014278;28;20541;-72
2022/04/30 08:25:00;;;;;;;6.50;4.20;;;;;;;;;;5012488;28;20528;-73
2022/04/30 08:27:27;;;;;;;6.63;4.40;;;;;;;;;;5025890;28;20058;-71
2022/04/30 08:29:53;;;;;;;16.02;4.43;;;;;;;;;;5031752;28;20506;-71
2022/04/30 08:32:22;;;;;;;5.88;3.92;;;;;;;;;;5033341;28;20472;-71
2022/04/30 08:34:50;;;;;;;7.07;3.65;;;;;;;;;;5032920;28;20050;-71
2022/04/30 08:37:16;;;;;;;6.07;3.65;;;;;;;;;;5033707;28;20061;-70
2022/04/30 08:39:43;;;;;;;5.90;3.67;;;;;;;;;;5033151;28;20072;-72
2022/04/30 08:42:09;;;;;;;10.02;4.18;;;;;;;;;;5033388;28;20478;-69
2022/04/30 08:44:39;;;;;;;5.75;3.53;;;;;;;;;;5032963;28;20046;-69
2022/04/30 08:47:07;;;;;;;7.40;3.55;;;;;;;;;;5033500;28;20058;-70
2022/04/30 08:49:33;;;;;;;5.88;3.90;;;;;;;;;;5031873;28;20054;-69
2022/04/30 08:51:59;;;;;;;6.28;3.97;;;;;;;;;;5032797;28;20072;-69
2022/04/30 08:54:26;;;;;;;6.78;4.28;;;;;;;;;;5033084;28;20430;-69
2022/04/30 08:56:56;;;;;;;5.50;3.50;;;;;;;;;;5031982;28;20053;-69
2022/04/30 08:59:22;;;;;;;7.95;3.22;;;;;;;;;;5032628;28;20056;-69
2022/04/30 09:01:49;;;;;;;5.47;3.60;;;;;;;;;;5032715;28;20060;-69
2022/04/30 09:04:15;;;;;;;4.95;3.75;;;;;;;;;;5033518;28;20076;-70
2022/04/30 09:06:45;;;;;;;5.88;3.83;;;;;;;;;;5032109;28;20057;-70
2022/04/30 09:09:19;;;;;;;5.45;3.53;;;;;;;;;;5025755;28;20054;-69
2022/04/30 09:11:46;;;;;;;8.27;3.90;;;;;;;;;;5032829;28;20053;-69
2022/04/30 09:14:12;;;;;;;8.30;3.50;;;;;;;;;;5032801;28;20050;-69
2022/04/30 09:16:38;;;;;;;7.00;3.83;;;;;;;;;;5032792;28;20060;-69
2022/04/30 09:19:04;;;;;;;4.32;3.60;;;;;;;;;;5031478;28;20050;-70
2022/04/30 09:21:46;;;;;;;9.07;5.25;;;;;;;;;;5028525;28;20060;-69
2022/04/30 09:24:14;;;;;;;4.95;3.58;;;;;;;;;;5030660;28;20057;-70
2022/04/30 09:26:41;;;;;;;7.45;3.97;;;;;;;;;;5033438;28;20057;-70
2022/04/30 09:29:20;;;;;;;8.52;3.88;;;;;;;;;;5031688;28;20057;-69
2022/04/30 09:31:53;;;;;;;4.60;3.60;;;;;;;;;;5023273;28;20054;-69
2022/04/30 09:39:50;;;;;;;5.20;3.42;;;;;;;;;;5030607;28;20391;-70
2022/04/30 09:42:17;;;;;;;7.07;3.47;;;;;;;;;;5031973;28;20062;-69
2022/04/30 09:44:43;;;;;;;7.03;3.20;;;;;;;;;;5032771;28;20054;-69
2022/04/30 09:47:10;;;;;;;4.82;3.15;;;;;;;;;;5032157;28;20061;-69
2022/04/30 09:55:07;;;;;;;5.10;4.03;;;;;;;;;;5030547;28;20649;-69
2022/04/30 09:57:38;;;;;;;7.55;3.83;;;;;;;;;;5031089;28;20054;-70
2022/04/30 10:00:04;;;;;;;6.05;3.72;;;;;;;;;;5028495;28;20513;-69
2022/04/30 10:02:31;;;;;;;6.60;4.20;;;;;;;;;;5029049;28;20068;-69
2022/04/30 10:04:57;;;;;;;5.45;3.65;;;;;;;;;;5030592;28;20450;-70
2022/04/30 10:07:24;;;;;;;7.57;3.90;;;;;;;;;;5027850;28;20056;-70
2022/04/30 10:09:58;;;;;;;4.55;3.10;;;;;;;;;;5031262;28;20525;-69
2022/04/30 10:12:32;;;;;;;4.72;3.58;;;;;;;;;;5031175;28;20064;-69
2022/04/30 10:15:08;;;;;;;3.88;3.08;;;;;;;;;;5027950;28;20058;-69
2022/04/30 10:17:36;;;;;;;4.55;3.47;;;;;;;;;;5026610;28;20058;-70
2022/04/30 10:20:11;;;;;;;4.85;3.17;;;;;;;;;;5031108;28;20504;-69
2022/04/30 10:22:48;;;;;;;5.20;4.03;;;;;;;;;;5031745;28;20482;-69
2022/04/30 10:25:14;;;;;;;7.40;3.53;;;;;;;;;;5029709;28;20246;-69
2022/04/30 10:27:42;;;;;;;5.53;3.70;;;;;;;;;;5031871;28;20501;-69
2022/04/30 10:30:19;;;;;;;5.13;3.45;;;;;;;;;;5031754;28;20054;-69
2022/04/30 10:32:54;;;;;;;5.45;3.10;;;;;;;;;;5031402;28;20089;-70
2022/04/30 10:35:27;;;;;;;9.25;2.95;;;;;;;;;;5034734;28;20046;-69
2022/04/30 10:37:53;;;;;;;3.35;2.75;;;;;;;;;;5031931;28;20442;-70
2022/04/30 10:40:21;;;;;;;4.60;3.10;;;;;;;;;;5033145;28;20058;-69
2022/04/30 10:42:47;;;;;;;4.78;3.47;;;;;;;;;;5034712;28;20061;-69
2022/04/30 10:45:17;;;;;;;7.85;3.60;;;;;;;;;;5033189;28;20521;-69
2022/04/30 10:47:52;;;;;;;6.47;2.80;;;;;;;;;;5035307;28;20148;-69
2022/04/30 10:50:19;;;;;;;8.07;2.97;;;;;;;;;;5034621;28;20049;-70
2022/04/30 10:52:47;;;;;;;5.72;3.42;;;;;;;;;;5032726;28;20076;-69
2022/04/30 10:55:14;;;;;;;5.22;3.63;;;;;;;;;;5033265;28;20454;-69
2022/04/30 10:57:43;;;;;;;7.07;3.08;;;;;;;;;;5031754;28;20054;-69
2022/04/30 11:00:10;;;;;;;7.15;3.60;;;;;;;;;;5034973;28;20054;-69
2022/04/30 11:02:37;;;;;;;7.80;3.28;;;;;;;;;;5035167;28;20060;-69
2022/04/30 11:05:03;;;;;;;5.00;3.15;;;;;;;;;;5034652;28;20500;-70
2022/04/30 11:07:30;;;;;;;6.93;3.10;;;;;;;;;;5034793;28;20053;-69
2022/04/30 11:09:57;;;;;;;5.20;3.55;;;;;;;;;;5032823;28;20498;-70
2022/04/30 11:12:30;;;;;;;5.72;3.95;;;;;;;;;;5034620;28;20065;-69
2022/04/30 11:14:57;;;;;;;7.88;3.55;;;;;;;;;;5032480;28;20502;-69
2022/04/30 11:17:25;;;;;;;8.48;4.32;;;;;;;;;;5030548;28;20513;-70
2022/04/30 11:19:51;;;;;;;6.88;3.55;;;;;;;;;;5033467;28;20050;-69
2022/04/30 11:22:20;;;;;;;5.88;3.35;;;;;;;;;;5034006;28;20486;-69
2022/04/30 11:24:46;;;;;;;6.53;3.15;;;;;;;;;;5033517;28;20508;-69
2022/04/30 11:27:12;;;;;;;6.78;3.53;;;;;;;;;;5039661;28;20045;-69
2022/04/30 11:29:49;;;;;;;5.22;3.50;;;;;;;;;;5035908;28;20072;-69
2022/04/30 11:32:21;;;;;;;5.30;3.53;;;;;;;;;;5033758;28;20073;-69
2022/04/30 11:34:48;;;;;;;3.97;3.47;;;;;;;;;;5032826;28;20054;-69
2022/04/30 11:37:15;;;;;;;5.00;3.25;;;;;;;;;;5033891;28;20058;-70
2022/04/30 11:39:43;;;;;;;5.80;3.50;;;;;;;;;;5032722;28;20109;-70
2022/04/30 11:42:10;;;;;;;5.18;3.05;;;;;;;;;;5034553;28;20089;-70
2022/04/30 11:44:36;;;;;;;5.32;2.83;;;;;;;;;;5033104;28;20528;-70
2022/04/30 11:47:05;;;;;;;6.88;3.10;;;;;;;;;;5032767;28;20528;-69
2022/04/30 11:49:32;;;;;;;6.32;3.13;;;;;;;;;;5034165;28;20062;-69
2022/04/30 11:52:06;;;;;;;7.25;3.20;;;;;;;;;;5033233;28;20064;-69
2022/04/30 11:54:35;;;;;;;7.28;3.15;;;;;;;;;;5034136;28;20072;-69
2022/04/30 11:57:02;;;;;;;3.90;3.47;;;;;;;;;;5033826;28;20054;-70
2022/04/30 11:59:32;;;;;;;3.95;2.72;;;;;;;;;;5034304;28;20109;-70
2022/04/30 12:01:59;;;;;;;6.85;3.92;;;;;;;;;;5034444;28;20045;-69
2022/04/30 12:04:26;;;;;;;4.85;3.15;;;;;;;;;;5032431;28;20429;-69
2022/04/30 12:06:59;;;;;;;8.10;3.88;;;;;;;;;;5033211;28;20061;-69
2022/04/30 12:09:28;;;;;;;3.90;2.72;;;;;;;;;;5032756;28;20054;-69
2022/04/30 12:11:54;;;;;;;5.40;3.00;;;;;;;;;;5032148;28;20060;-69
2022/04/30 12:14:20;;;;;;;7.18;2.92;;;;;;;;;;5033512;28;20190;-69
2022/04/30 12:16:47;;;;;;;4.90;2.63;;;;;;;;;;5033498;28;20053;-70
2022/04/30 12:25:14;;;;;;;5.15;2.75;;;;;;;;;;5030983;28;20054;-70
2022/04/30 12:27:41;;;;;;;5.38;2.60;;;;;;;;;;5033504;28;20054;-70
2022/04/30 12:30:28;;;;;;;6.13;2.60;;;;;;;;;;5032376;28;20106;-70
2022/04/30 12:33:03;;;;;;;6.45;3.58;;;;;;;;;;5033552;28;20057;-69
2022/04/30 12:35:40;;;;;;;3.00;2.30;;;;;;;;;;5032880;28;20421;-70
2022/04/30 12:38:10;;;;;;;5.47;2.63;;;;;;;;;;5033629;28;20064;-72
2022/04/30 12:40:39;;;;;;;4.88;2.55;;;;;;;;;;5033632;28;20064;-72
2022/04/30 12:43:06;;;;;;;4.03;2.17;;;;;;;;;;5032321;28;20056;-72
2022/04/30 12:45:34;;;;;;;3.35;2.35;;;;;;;;;;5033453;28;20556;-72
2022/04/30 12:48:01;;;;;;;5.00;2.40;;;;;;;;;;5033364;28;20062;-73
2022/04/30 12:50:28;;;;;;;7.03;2.40;;;;;;;;;;5033169;28;20062;-72
2022/04/30 12:52:54;;;;;;;5.88;2.63;;;;;;;;;;5030911;28;20457;-71
2022/04/30 12:55:21;;;;;;;5.60;2.70;;;;;;;;;;5032576;28;20054;-72
2022/04/30 12:57:47;;;;;;;4.82;2.45;;;;;;;;;;5030812;28;20088;-72
2022/04/30 13:00:15;;;;;;;4.15;2.67;;;;;;;;;;5033038;28;20449;-72
2022/04/30 13:02:42;;;;;;;6.07;2.50;;;;;;;;;;5032118;28;20050;-74
2022/04/30 13:05:09;;;;;;;6.03;2.50;;;;;;;;;;5032983;28;20056;-72
2022/04/30 13:07:38;;;;;;;4.43;2.60;;;;;;;;;;5032753;28;20085;-71
2022/04/30 13:15:38;;;;;;;3.78;2.60;;;;;;;;;;5021687;28;20050;-71
2022/04/30 13:18:06;;;;;;;2.65;2.28;;;;;;;;;;5032440;28;20061;-72
2022/04/30 13:20:32;;;;;;;5.25;2.83;;;;;;;;;;5032826;28;20057;-72
2022/04/30 13:22:58;;;;;;;4.28;2.50;;;;;;;;;;5031779;28;20052;-73
2022/04/30 13:25:25;;;;;;;6.45;2.70;;;;;;;;;;5031400;28;20057;-73
2022/04/30 13:27:51;;;;;;;2.88;2.38;;;;;;;;;;5031579;28;20172;-73
2022/04/30 13:30:18;;;;;;;4.50;2.55;;;;;;;;;;5032693;28;20050;-73
2022/04/30 13:32:45;;;;;;;3.25;2.65;;;;;;;;;;5032471;28;20173;-73
2022/04/30 13:35:11;;;;;;;4.85;2.72;;;;;;;;;;5032556;28;20049;-73
2022/04/30 13:37:40;;;;;;;4.18;2.60;;;;;;;;;;5031468;28;20058;-73
2022/04/30 13:40:07;;;;;;;6.38;3.67;;;;;;;;;;5032609;28;20425;-74
2022/04/30 13:42:33;;;;;;;2.85;2.35;;;;;;;;;;5032433;28;20058;-73
2022/04/30 13:44:59;;;;;;;4.68;2.33;;;;;;;;;;5031578;28;20058;-73
2022/04/30 13:47:25;;;;;;;4.07;2.60;;;;;;;;;;5031366;28;20511;-73
2022/04/30 13:49:52;;;;;;;2.88;2.10;;;;;;;;;;5030995;28;20052;-74
2022/04/30 13:52:18;;;;;;;2.90;2.58;;;;;;;;;;5031424;28;20531;-73
2022/04/30 13:54:44;;;;;;;6.55;2.97;;;;;;;;;;5031828;28;20046;-73
2022/04/30 13:57:11;;;;;;;4.68;2.85;;;;;;;;;;5031976;28;20173;-73
2022/04/30 13:59:37;;;;;;;3.55;2.72;;;;;;;;;;5028726;28;20581;-73
2022/04/30 14:02:04;;;;;;;3.17;2.38;;;;;;;;;;5031456;28;20477;-72
2022/04/30 14:04:31;;;;;;;2.85;2.38;;;;;;;;;;5031926;28;20066;-73
2022/04/30 14:06:58;;;;;;;4.32;2.40;;;;;;;;;;5032633;28;20066;-75
2022/04/30 14:09:25;;;;;;;5.03;2.95;;;;;;;;;;5035641;28;20523;-74
2022/04/30 14:11:51;;;;;;;3.65;2.50;;;;;;;;;;5035826;28;20104;-73
2022/04/30 14:18:15;;;;;;;4.28;2.67;;;;;;;;;;5034724;28;20517;-73
2022/04/30 14:19:51;;;;;;;4.70;2.80;;;;;;;;;;5034542;28;20176;-73
2022/04/30 14:22:17;;;;;;;10.02;3.90;;;;;;;;;;5035382;28;20054;-74
2022/04/30 14:24:44;;;;;;;5.20;2.92;;;;;;;;;;5034771;28;20065;-71
2022/04/30 14:27:10;;;;;;;4.40;2.40;;;;;;;;;;5024902;28;20045;-70
2022/04/30 14:29:36;;;;;;;6.45;2.78;;;;;;;;;;5024973;28;20054;-71
2022/04/30 14:32:03;;;;;;;3.35;2.33;;;;;;;;;;5033099;28;20057;-72
2022/04/30 14:34:29;;;;;;;5.05;3.00;;;;;;;;;;5033715;28;20050;-73
2022/04/30 14:36:55;;;;;;;7.10;2.83;;;;;;;;;;5033211;28;20052;-72
2022/04/30 14:39:21;;;;;;;4.30;2.55;;;;;;;;;;5034249;28;20198;-72
2022/04/30 14:41:48;;;;;;;2.47;2.20;;;;;;;;;;5030541;28;20050;-73
2022/04/30 14:44:14;;;;;;;4.38;2.42;;;;;;;;;;5032168;28;20045;-69
2022/04/30 14:46:40;;;;;;;2.67;2.00;;;;;;;;;;5024915;28;20061;-71
2022/04/30 14:49:07;;;;;;;4.22;2.05;;;;;;;;;;5033624;28;20125;-71
2022/04/30 14:51:33;;;;;;;2.78;2.05;;;;;;;;;;5030607;28;20058;-71
2022/04/30 14:53:59;;;;;;;6.07;2.17;;;;;;;;;;5033623;28;20144;-71
2022/04/30 14:56:25;;;;;;;3.63;2.22;;;;;;;;;;5031344;28;20058;-73
2022/04/30 14:58:52;;;;;;;2.95;2.03;;;;;;;;;;5035037;28;20105;-72
2022/04/30 15:01:18;;;;;;;6.10;2.95;;;;;;;;;;5032325;28;20568;-72
2022/04/30 15:03:44;;;;;;;5.45;2.60;;;;;;;;;;5032005;28;20555;-72
2022/04/30 15:06:17;;;;;;;3.08;1.92;;;;;;;;;;5033381;28;20182;-72
2022/04/30 15:08:44;;;;;;;4.35;2.20;;;;;;;;;;5034455;28;20053;-70
2022/04/30 15:11:10;;;;;;;4.88;1.98;;;;;;;;;;5032565;28;20060;-72
2022/04/30 15:13:36;;;;;;;4.20;2.15;;;;;;;;;;5033204;28;20524;-71
2022/04/30 15:16:03;;;;;;;5.93;2.15;;;;;;;;;;5033464;28;20062;-72
2022/04/30 15:18:29;;;;;;;4.82;2.00;;;;;;;;;;5031640;28;20054;-72
2022/04/30 15:20:55;;;;;;;3.55;2.38;;;;;;;;;;5030388;28;20080;-70
2022/04/30 15:23:22;;;;;;;5.85;2.97;;;;;;;;;;5033970;28;20053;-72
2022/04/30 15:25:52;;;;;;;3.40;2.38;;;;;;;;;;5034536;28;20100;-74
2022/04/30 15:28:18;;;;;;;5.50;2.30;;;;;;;;;;5033629;28;20084;-74
2022/04/30 15:30:45;;;;;;;6.05;2.95;;;;;;;;;;5034197;28;20056;-74